createdAt,value
2023-03-29T00:01:06.103Z,10.28
2023-03-29T00:04:20.018Z,10.25
2023-03-29T00:07:33.770Z,10.30
2023-03-29T00:10:46.344Z,10.13
2023-03-29T00:13:58.493Z,10.50
2023-03-29T00:17:12.948Z,10.45
2023-03-29T00:20:25.763Z,11.73
2023-03-29T00:23:38.033Z,11.18
2023-03-29T00:26:50.198Z,11.18
2023-03-29T00:30:04.359Z,11.40
2023-03-29T00:33:16.695Z,11.95
2023-03-29T00:36:28.825Z,12.43
2023-03-29T00:39:44.149Z,11.75
2023-03-29T00:42:57.328Z,13.25
2023-03-29T00:46:11.330Z,13.18
2023-03-29T00:49:23.608Z,13.13
2023-03-29T00:52:39.029Z,13.78
2023-03-29T00:55:56.886Z,12.80
2023-03-29T00:59:11.879Z,13.50
2023-03-29T01:02:27.584Z,12.40
2023-03-29T01:05:44.645Z,13.15
2023-03-29T01:09:01.387Z,13.83
2023-03-29T01:12:20.977Z,12.85
2023-03-29T01:15:34.993Z,13.85
2023-03-29T01:18:47.236Z,13.00
2023-03-29T01:22:05.047Z,13.53
2023-03-29T01:25:25.565Z,12.53
2023-03-29T01:28:42.711Z,12.90
2023-03-29T01:31:59.239Z,14.18
2023-03-29T01:35:17.999Z,14.10
2023-03-29T01:38:34.868Z,13.53
2023-03-29T01:41:54.251Z,15.18
2023-03-29T01:45:14.069Z,14.33
2023-03-29T01:48:31.868Z,13.73
2023-03-29T01:51:48.374Z,14.63
2023-03-29T01:55:07.205Z,13.35
2023-03-29T01:58:22.725Z,12.63
2023-03-29T02:01:39.169Z,13.90
2023-03-29T02:04:56.351Z,13.45
2023-03-29T02:08:11.865Z,12.88
2023-03-29T02:11:26.188Z,14.50
2023-03-29T02:14:39.818Z,14.48
2023-03-29T02:17:53.561Z,13.75
2023-03-29T02:21:05.830Z,15.40
2023-03-29T02:24:22.513Z,14.25
2023-03-29T02:27:37.772Z,15.18
2023-03-29T02:30:57.392Z,15.30
2023-03-29T02:34:16.213Z,16.43
2023-03-29T02:37:30.573Z,15.53
2023-03-29T02:40:45.570Z,16.53
2023-03-29T02:43:58.776Z,17.18
2023-03-29T02:47:16.920Z,17.10
2023-03-29T02:50:30.601Z,16.58
2023-03-29T02:53:46.682Z,15.63
2023-03-29T02:57:04.054Z,13.48
2023-03-29T03:00:22.537Z,15.88
2023-03-29T03:03:36.109Z,17.10
2023-03-29T03:06:49.188Z,16.58
2023-03-29T03:10:01.309Z,15.45
2023-03-29T03:13:14.059Z,16.18
2023-03-29T03:16:26.634Z,16.13
2023-03-29T03:19:39.897Z,15.95
2023-03-29T03:22:54.267Z,16.75
2023-03-29T03:26:06.437Z,15.13
2023-03-29T03:29:19.873Z,14.90
2023-03-29T03:32:50.070Z,14.73
2023-03-29T03:36:22.992Z,15.00
2023-03-29T03:39:37.366Z,14.40
2023-03-29T03:42:50.064Z,15.25
2023-03-29T03:46:02.910Z,14.58
2023-03-29T03:49:16.871Z,13.33
2023-03-29T03:52:30.119Z,13.95
2023-03-29T03:55:43.188Z,14.83
2023-03-29T03:58:57.454Z,14.43
2023-03-29T04:02:10.714Z,14.13
2023-03-29T04:05:24.067Z,14.68
2023-03-29T04:08:37.041Z,13.75
2023-03-29T04:12:00.107Z,14.75
2023-03-29T04:15:15.009Z,14.08
2023-03-29T04:18:30.227Z,13.90
2023-03-29T04:21:46.345Z,14.88
2023-03-29T04:24:58.517Z,15.20
2023-03-29T04:28:17.506Z,14.55
2023-03-29T04:31:32.376Z,13.88
2023-03-29T04:35:02.607Z,14.23
2023-03-29T04:38:15.136Z,13.18
2023-03-29T04:41:29.292Z,12.80
2023-03-29T04:44:49.200Z,12.55
2023-03-29T04:48:06.003Z,12.68
2023-03-29T04:51:20.369Z,11.60
2023-03-29T04:54:34.698Z,12.68
2023-03-29T04:57:48.863Z,11.93
2023-03-29T05:01:06.085Z,11.93
2023-03-29T05:04:23.195Z,11.05
2023-03-29T05:07:37.612Z,11.63
2023-03-29T05:10:52.348Z,11.48
2023-03-29T05:14:07.197Z,10.45
2023-03-29T05:17:20.637Z,10.55
2023-03-29T05:20:34.088Z,11.18
2023-03-29T05:23:46.693Z,11.05
2023-03-29T05:27:02.834Z,12.00
2023-03-29T05:30:19.765Z,10.65
2023-03-29T05:33:37.244Z,11.20
2023-03-29T05:36:50.354Z,10.83
2023-03-29T05:40:08.068Z,10.70
2023-03-29T05:43:34.290Z,10.20
2023-03-29T05:54:08.801Z,11.55
2023-03-29T05:57:21.818Z,9.90
2023-03-29T06:00:36.924Z,10.65
2023-03-29T06:03:51.424Z,10.13
2023-03-29T06:07:05.909Z,9.25
2023-03-29T06:10:20.591Z,8.45
2023-03-29T06:13:37.286Z,9.60
2023-03-29T06:16:50.590Z,9.10
2023-03-29T06:20:06.500Z,7.73
2023-03-29T06:23:19.968Z,8.88
2023-03-29T06:26:33.160Z,8.35
2023-03-29T09:30:53.673Z,3.23
2023-03-29T09:34:09.453Z,3.50
2023-03-29T09:37:30.236Z,3.35
2023-03-29T09:40:49.181Z,5.25
2023-03-29T09:44:07.346Z,2.70
2023-03-29T09:47:28.387Z,2.50
2023-03-29T09:50:47.000Z,2.40
2023-03-29T09:54:01.252Z,2.13
2023-03-29T09:57:24.269Z,2.53
2023-03-29T10:00:36.957Z,2.25
2023-03-29T10:03:54.635Z,2.48
2023-03-29T10:07:08.874Z,2.45
2023-03-29T10:10:32.218Z,2.73
2023-03-29T10:13:53.837Z,2.53
2023-03-29T10:17:08.864Z,2.60
2023-03-29T10:20:25.049Z,2.60
2023-03-29T10:23:41.324Z,2.80
2023-03-29T10:26:57.128Z,2.77
2023-03-29T10:30:18.708Z,2.48
2023-03-29T10:33:35.459Z,2.93
2023-03-29T10:36:52.447Z,2.33
2023-03-29T10:43:26.797Z,2.35
2023-03-29T10:46:46.713Z,2.50
2023-03-29T10:50:04.608Z,2.90
2023-03-29T10:53:25.587Z,3.10
2023-03-29T10:56:52.371Z,4.08
2023-03-29T11:00:11.042Z,2.58
2023-03-29T11:03:51.679Z,2.50
2023-03-29T11:07:23.447Z,2.75
2023-03-29T11:10:46.229Z,2.68
2023-03-29T11:14:04.072Z,2.15
2023-03-29T11:17:28.296Z,2.00
2023-03-29T11:20:48.056Z,1.50
2023-03-29T11:24:10.376Z,3.00
2023-03-29T11:27:33.299Z,2.05
2023-03-29T11:30:52.224Z,2.25
2023-03-29T11:34:16.535Z,2.95
2023-03-29T11:37:35.985Z,2.33
2023-03-29T11:40:58.000Z,2.70
2023-03-29T11:44:16.659Z,2.45
2023-03-29T11:47:33.498Z,2.00
2023-03-29T11:50:52.649Z,2.33
2023-03-29T11:54:15.013Z,2.30
2023-03-29T11:57:33.452Z,2.50
2023-03-29T12:00:49.293Z,2.50
2023-03-29T12:04:05.795Z,2.43
2023-03-29T13:27:43.226Z,3.03
2023-03-29T13:34:42.125Z,2.70
2023-03-29T13:41:39.995Z,2.58
2023-03-29T13:44:54.717Z,2.60
2023-03-29T13:48:29.583Z,3.35
2023-03-29T13:51:47.140Z,3.25
2023-03-29T13:55:04.186Z,3.08
2023-03-29T14:04:53.781Z,3.20
2023-03-29T14:08:13.192Z,3.08
2023-03-29T14:11:31.525Z,2.83
2023-03-29T14:14:58.364Z,2.63
2023-03-29T14:18:05.623Z,2.63
2023-03-29T14:24:36.469Z,2.55
2023-03-29T14:27:49.564Z,3.40
2023-03-29T14:31:02.782Z,2.68
2023-03-29T14:34:26.971Z,2.90
2023-03-29T14:37:39.369Z,3.20
2023-03-29T14:40:53.542Z,3.05
2023-03-29T14:44:07.168Z,3.30
2023-03-29T14:47:28.321Z,3.05
2023-03-29T14:50:41.933Z,3.28
2023-03-29T14:53:55.293Z,3.68
2023-03-29T14:57:10.701Z,3.05
2023-03-29T15:00:35.253Z,3.30
2023-03-29T15:03:59.640Z,2.68
2023-03-29T15:07:12.632Z,3.35
2023-03-29T15:10:26.093Z,3.30
2023-03-29T15:13:39.046Z,3.40
2023-03-29T15:16:54.410Z,3.60
2023-03-29T15:20:15.986Z,4.00
2023-03-29T15:23:40.732Z,3.35
2023-03-29T15:27:05.760Z,3.40
2023-03-29T15:30:22.238Z,3.90
2023-03-29T15:33:41.863Z,3.28
2023-03-29T15:36:54.966Z,3.20
2023-03-29T15:40:09.933Z,2.80
2023-03-29T15:43:23.855Z,3.18
2023-03-29T15:46:36.482Z,3.48
2023-03-29T15:49:49.060Z,3.53
2023-03-29T15:53:14.170Z,3.75
2023-03-29T15:56:23.136Z,3.45
2023-03-29T15:59:36.675Z,3.95
2023-03-29T16:02:49.629Z,4.35
2023-03-29T16:06:04.848Z,4.10
2023-03-29T16:09:17.807Z,3.50
2023-03-29T16:12:33.378Z,17.13
2023-03-29T16:15:49.501Z,4.38
2023-03-29T16:19:01.804Z,3.70
2023-03-29T16:22:14.606Z,3.55
2023-03-29T16:25:27.696Z,4.00
2023-03-29T16:28:40.142Z,3.88
2023-03-29T16:31:53.601Z,3.55
2023-03-29T16:35:06.010Z,3.70
2023-03-29T16:38:18.517Z,3.43
2023-03-29T16:41:32.044Z,3.78
2023-03-29T16:44:44.754Z,3.75
2023-03-29T16:47:57.224Z,3.28
2023-03-29T16:51:11.425Z,3.75
2023-03-29T16:54:25.905Z,3.68
2023-03-29T16:57:39.065Z,3.58
2023-03-29T17:00:52.264Z,3.90
2023-03-29T17:04:04.543Z,4.23
2023-03-29T17:07:16.857Z,3.48
2023-03-29T17:10:29.847Z,4.08
2023-03-29T17:13:42.315Z,5.13
2023-03-29T17:16:54.666Z,3.78
2023-03-29T17:20:08.749Z,4.75
2023-03-29T17:23:21.346Z,4.35
2023-03-29T17:26:33.943Z,4.45
2023-03-29T17:29:46.242Z,4.80
2023-03-29T17:32:58.895Z,5.50
2023-03-29T17:36:13.890Z,5.50
2023-03-29T17:39:27.350Z,6.68
2023-03-29T17:42:39.958Z,6.58
2023-03-29T17:45:54.205Z,6.58
2023-03-29T17:49:07.060Z,6.53
2023-03-29T17:52:19.708Z,10.53
2023-03-29T17:55:32.050Z,10.55
2023-03-29T17:58:44.556Z,10.03
2023-03-29T18:01:57.726Z,11.10
2023-03-29T18:05:11.597Z,14.90
2023-03-29T18:08:24.358Z,14.63
2023-03-29T18:11:37.384Z,13.53
2023-03-29T18:14:49.897Z,14.55
2023-03-29T18:18:02.379Z,16.38
2023-03-29T18:21:15.656Z,16.38
2023-03-29T18:24:27.976Z,15.63
2023-03-29T18:27:40.297Z,17.28
2023-03-29T18:30:56.175Z,18.00
2023-03-29T18:34:08.603Z,18.60
2023-03-29T18:37:21.185Z,18.28
2023-03-29T18:40:34.903Z,16.65
2023-03-29T18:43:47.854Z,16.28
2023-03-29T18:47:00.368Z,16.03
2023-03-29T18:50:15.299Z,14.68
2023-03-29T18:53:27.893Z,15.30
2023-03-29T18:56:40.165Z,14.25
2023-03-29T18:59:52.808Z,14.78
2023-03-29T19:03:05.240Z,15.40
2023-03-29T19:06:18.028Z,14.48
2023-03-29T19:09:31.960Z,15.60
2023-03-29T19:12:44.771Z,16.00
2023-03-29T19:15:57.197Z,15.98
2023-03-29T19:19:10.938Z,16.35
2023-03-29T19:22:23.173Z,16.43
2023-03-29T19:25:36.909Z,15.83
2023-03-29T19:28:49.558Z,15.15
2023-03-29T19:32:01.909Z,15.63
2023-03-29T19:35:17.092Z,16.78
2023-03-29T19:38:29.712Z,19.60
2023-03-29T19:41:42.145Z,15.95
2023-03-29T19:44:54.775Z,14.93
2023-03-29T19:48:07.377Z,14.78
2023-03-29T19:51:20.044Z,13.80
2023-03-29T19:54:32.375Z,12.53
2023-03-29T19:57:44.678Z,12.53
2023-03-29T20:00:58.260Z,12.43
2023-03-29T20:04:12.060Z,11.63
2023-03-29T20:07:24.768Z,10.60
2023-03-29T20:10:37.446Z,10.28
2023-03-29T20:13:51.663Z,11.00
2023-03-29T20:17:04.684Z,9.58
2023-03-29T20:20:19.138Z,10.30
2023-03-29T20:23:31.799Z,10.43
2023-03-29T20:26:44.373Z,9.90
2023-03-29T20:29:56.725Z,9.70
2023-03-29T20:33:09.287Z,10.03
2023-03-29T20:36:23.329Z,9.20
2023-03-29T20:39:37.391Z,10.38
2023-03-29T20:42:49.925Z,10.13
2023-03-29T20:46:02.365Z,11.40
2023-03-29T20:49:16.492Z,11.68
2023-03-29T20:52:30.006Z,11.98
2023-03-29T20:55:43.028Z,11.70
2023-03-29T20:58:55.868Z,10.75
2023-03-29T21:02:08.917Z,12.35
2023-03-29T21:05:22.017Z,10.58
2023-03-29T21:08:34.727Z,11.10
2023-03-29T21:11:47.233Z,10.65
2023-03-29T21:15:00.622Z,10.48
2023-03-29T21:18:13.397Z,10.10
2023-03-29T21:21:26.325Z,10.90
2023-03-29T21:24:39.643Z,10.30
2023-03-29T21:27:52.075Z,11.28
2023-03-29T21:31:07.564Z,10.35
2023-03-29T21:34:20.086Z,11.43
2023-03-29T21:37:33.133Z,10.45
2023-03-29T21:40:45.505Z,11.03
2023-03-29T21:43:57.833Z,11.60
2023-03-29T21:47:10.209Z,9.83
2023-03-29T21:50:22.619Z,10.30
2023-03-29T21:53:35.002Z,9.85
2023-03-29T21:56:48.415Z,10.00
2023-03-29T22:00:00.982Z,9.80
2023-03-29T22:03:13.365Z,9.30
2023-03-29T22:06:25.712Z,10.63
2023-03-29T22:09:40.938Z,10.25
2023-03-29T22:12:53.501Z,10.40
2023-03-29T22:16:07.861Z,10.28
2023-03-29T22:19:20.242Z,11.15
2023-03-29T22:22:32.433Z,10.98
2023-03-29T22:25:45.039Z,10.50
2023-03-29T22:28:58.225Z,10.85
2023-03-29T22:32:11.506Z,11.48
2023-03-29T22:35:24.362Z,11.20
2023-03-29T22:38:37.354Z,10.68
2023-03-29T22:41:49.624Z,10.98
2023-03-29T22:45:01.746Z,11.13
2023-03-29T22:48:14.278Z,11.63
2023-03-29T22:51:27.451Z,10.63
2023-03-29T22:54:39.837Z,10.60
2023-03-29T22:57:51.958Z,10.85
2023-03-29T23:01:05.206Z,10.50
2023-03-29T23:04:18.214Z,11.28
2023-03-29T23:07:30.521Z,10.80
2023-03-29T23:10:42.638Z,10.40
2023-03-29T23:13:55.454Z,9.48
2023-03-29T23:17:09.512Z,10.03
2023-03-29T23:20:22.676Z,9.88
2023-03-29T23:23:35.806Z,9.55
2023-03-29T23:26:49.244Z,9.43
2023-03-29T23:30:01.940Z,9.60
2023-03-29T23:33:15.141Z,9.15
2023-03-29T23:36:29.422Z,9.40
2023-03-29T23:39:42.109Z,9.25
2023-03-29T23:42:56.583Z,8.70
2023-03-29T23:46:11.391Z,8.15
2023-03-29T23:49:24.479Z,8.50
2023-03-29T23:52:38.217Z,8.48
2023-03-29T23:55:51.550Z,8.65
2023-03-29T23:59:04.787Z,7.20
